createdAt,value
2018-09-17T00:01:32.863Z,100489.52
2018-09-17T00:04:01.686Z,100488.83
2018-09-17T00:06:31.136Z,100483.00
2018-09-17T00:08:59.974Z,100478.99
2018-09-17T00:11:28.738Z,100484.78
2018-09-17T00:13:57.475Z,100484.20
2018-09-17T00:16:26.115Z,100477.45
2018-09-17T00:18:55.000Z,100470.16
2018-09-17T00:21:24.103Z,100469.78
2018-09-17T00:23:52.846Z,100469.86
2018-09-17T00:26:21.451Z,100469.81
2018-09-17T00:28:50.178Z,100475.05
2018-09-17T00:31:19.150Z,100466.14
2018-09-17T00:33:47.997Z,100466.14
2018-09-17T00:36:17.165Z,100466.22
2018-09-17T00:38:46.241Z,100465.70
2018-09-17T00:41:15.047Z,100456.88
2018-09-17T00:43:43.740Z,100451.78
2018-09-17T00:46:12.522Z,100454.09
2018-09-17T00:48:41.234Z,100453.43
2018-09-17T00:51:10.011Z,100443.02
2018-09-17T00:53:38.859Z,100449.27
2018-09-17T00:56:07.595Z,100445.59
2018-09-17T00:58:36.466Z,100434.45
2018-09-17T01:01:05.254Z,100434.67
2018-09-17T01:03:33.986Z,100432.70
2018-09-17T01:06:02.671Z,100434.55
2018-09-17T01:08:31.540Z,100434.70
2018-09-17T01:11:00.471Z,100433.64
2018-09-17T01:13:29.189Z,100432.02
2018-09-17T01:15:58.090Z,100421.08
2018-09-17T01:18:27.157Z,100425.02
2018-09-17T01:20:55.978Z,100421.65
2018-09-17T01:23:24.740Z,100412.84
2018-09-17T01:25:53.660Z,100410.02
2018-09-17T01:28:22.684Z,100406.95
2018-09-17T01:30:51.421Z,100408.66
2018-09-17T01:33:20.109Z,100405.12
2018-09-17T01:35:48.876Z,100406.97
2018-09-17T01:38:17.776Z,100404.07
2018-09-17T01:40:46.805Z,100403.74
2018-09-17T01:43:15.676Z,100397.48
2018-09-17T01:45:44.455Z,100394.02
2018-09-17T01:48:13.189Z,100392.17
2018-09-17T01:50:42.008Z,100389.94
2018-09-17T01:53:10.837Z,100385.70
2018-09-17T01:55:39.629Z,100388.50
2018-09-17T01:58:08.539Z,100383.26
2018-09-17T02:00:37.433Z,100385.87
2018-09-17T02:03:06.497Z,100383.41
2018-09-17T02:05:35.264Z,100381.12
2018-09-17T02:08:04.196Z,100389.37
2018-09-17T02:10:33.348Z,100384.52
2018-09-17T02:13:02.134Z,100384.06
2018-09-17T02:15:31.068Z,100382.96
2018-09-17T02:17:59.858Z,100378.43
2018-09-17T02:20:28.535Z,100384.05
2018-09-17T02:22:57.311Z,100375.34
2018-09-17T02:25:26.036Z,100376.20
2018-09-17T02:27:54.635Z,100374.42
2018-09-17T02:30:23.383Z,100372.27
2018-09-17T02:32:52.219Z,100372.87
2018-09-17T02:35:21.209Z,100367.64
2018-09-17T02:37:50.077Z,100372.34
2018-09-17T02:40:19.205Z,100361.80
2018-09-17T02:42:50.040Z,100367.96
2018-09-17T02:45:19.634Z,100364.95
2018-09-17T02:47:48.300Z,100365.48
2018-09-17T02:50:17.123Z,100365.20
2018-09-17T02:52:46.336Z,100363.90
2018-09-17T02:55:14.983Z,100355.81
2018-09-17T02:57:43.900Z,100353.19
2018-09-17T03:00:12.615Z,100357.58
2018-09-17T03:02:41.316Z,100356.45
2018-09-17T03:05:10.161Z,100353.98
2018-09-17T03:07:38.856Z,100356.14
2018-09-17T03:10:07.508Z,100354.97
2018-09-17T03:12:36.306Z,100348.15
2018-09-17T03:15:16.011Z,100348.92
2018-09-17T03:17:44.733Z,100347.62
2018-09-17T03:20:13.379Z,100351.05
2018-09-17T03:22:42.338Z,100345.99
2018-09-17T03:25:11.083Z,100340.38
2018-09-17T03:27:39.906Z,100339.31
2018-09-17T03:30:08.715Z,100337.16
2018-09-17T03:32:38.420Z,100335.54
2018-09-17T03:35:07.236Z,100337.56
2018-09-17T03:37:35.988Z,100317.42
2018-09-17T03:40:04.691Z,100331.48
2018-09-17T03:42:33.562Z,100328.02
2018-09-17T03:45:02.215Z,100329.92
2018-09-17T03:47:30.881Z,100325.16
2018-09-17T03:50:00.106Z,100326.92
2018-09-17T03:52:29.076Z,100329.79
2018-09-17T03:54:57.739Z,100332.41
2018-09-17T03:57:26.770Z,100336.72
2018-09-17T03:59:55.598Z,100335.87
2018-09-17T04:02:24.472Z,100331.03
2018-09-17T04:04:53.413Z,100332.80
2018-09-17T04:07:22.312Z,100327.50
2018-09-17T04:09:51.096Z,100324.24
2018-09-17T04:12:20.043Z,100332.48
2018-09-17T04:14:49.405Z,100325.94
2018-09-17T04:17:18.184Z,100327.56
2018-09-17T04:19:46.991Z,100320.81
2018-09-17T04:22:15.665Z,100322.66
2018-09-17T04:24:44.363Z,100317.17
2018-09-17T04:27:13.218Z,100318.55
2018-09-17T04:29:42.092Z,100313.32
2018-09-17T04:32:11.035Z,100315.80
2018-09-17T04:34:39.846Z,100258.85
2018-09-17T04:37:08.626Z,100302.57
2018-09-17T04:39:37.667Z,100302.32
2018-09-17T04:42:06.562Z,100298.25
2018-09-17T04:44:35.605Z,100295.91
2018-09-17T04:47:04.274Z,100287.53
2018-09-17T04:49:33.201Z,100284.60
2018-09-17T04:52:01.902Z,100279.37
2018-09-17T04:54:30.503Z,100286.30
2018-09-17T04:56:59.101Z,100284.14
2018-09-17T04:59:27.825Z,100280.94
2018-09-17T05:01:56.622Z,100275.16
2018-09-17T05:04:25.470Z,100273.75
2018-09-17T05:06:54.243Z,100271.70
2018-09-17T05:09:23.159Z,100270.22
2018-09-17T05:11:52.035Z,100258.44
2018-09-17T05:14:20.783Z,100253.83
2018-09-17T05:16:49.944Z,100254.64
2018-09-17T05:19:18.844Z,100253.95
2018-09-17T05:21:47.671Z,100248.48
2018-09-17T05:24:16.429Z,100244.25
2018-09-17T05:26:45.164Z,100243.03
2018-09-17T05:29:14.156Z,100233.63
2018-09-17T05:31:43.109Z,100237.12
2018-09-17T05:34:42.379Z,100237.58
2018-09-17T05:37:11.191Z,100236.94
2018-09-17T05:39:39.906Z,100233.66
2018-09-17T05:42:08.563Z,100232.85
2018-09-17T05:44:37.407Z,100233.37
2018-09-17T05:47:06.500Z,100235.02
2018-09-17T05:49:35.287Z,100231.73
2018-09-17T05:52:04.076Z,100226.08
2018-09-17T05:54:32.875Z,100223.02
2018-09-17T05:57:01.515Z,100221.58
2018-09-17T05:59:30.314Z,100232.14
2018-09-17T06:01:58.993Z,100226.77
2018-09-17T06:04:27.778Z,100230.86
2018-09-17T06:06:56.619Z,100234.61
2018-09-17T06:09:25.465Z,100234.89
2018-09-17T06:11:54.271Z,100240.05
2018-09-17T06:14:23.092Z,100238.54
2018-09-17T06:16:52.036Z,100234.70
2018-09-17T06:19:20.821Z,100231.80
2018-09-17T06:21:49.754Z,100221.50
2018-09-17T06:24:18.694Z,100220.66
2018-09-17T06:26:47.567Z,100219.59
2018-09-17T06:29:16.633Z,100216.22
2018-09-17T06:31:45.609Z,100218.42
2018-09-17T06:34:14.387Z,100212.69
2018-09-17T06:36:43.167Z,100212.92
2018-09-17T06:39:12.227Z,100205.61
2018-09-17T06:41:40.948Z,100206.45
2018-09-17T06:44:09.830Z,100202.11
2018-09-17T06:46:38.599Z,100206.03
2018-09-17T06:49:07.442Z,100208.73
2018-09-17T06:51:36.183Z,100205.70
2018-09-17T06:54:04.987Z,100199.17
2018-09-17T06:56:33.877Z,100193.20
2018-09-17T06:59:02.521Z,100188.61
2018-09-17T07:01:31.276Z,100185.39
2018-09-17T07:04:00.035Z,100185.87
2018-09-17T07:06:28.708Z,100193.49
2018-09-17T07:08:57.366Z,100184.98
2018-09-17T07:11:26.048Z,100183.98
2018-09-17T07:13:55.022Z,100182.17
2018-09-17T07:16:23.730Z,100178.45
2018-09-17T07:18:52.554Z,100166.27
2018-09-17T07:21:21.304Z,100167.73
2018-09-17T07:23:50.142Z,100171.36
2018-09-17T07:26:19.177Z,100172.85
2018-09-17T07:28:48.017Z,100177.22
2018-09-17T07:31:16.794Z,100172.15
2018-09-17T07:33:45.557Z,100173.19
2018-09-17T07:36:14.554Z,100171.18
2018-09-17T07:38:43.401Z,100163.91
2018-09-17T07:41:12.078Z,100165.52
2018-09-17T07:43:40.708Z,100161.22
2018-09-17T07:46:11.127Z,100168.13
2018-09-17T07:48:39.855Z,100167.88
2018-09-17T07:51:09.644Z,100173.03
2018-09-17T07:53:38.514Z,100179.72
2018-09-17T07:56:07.545Z,100173.13
2018-09-17T07:58:37.031Z,100183.90
2018-09-17T08:01:06.190Z,100209.14
2018-09-17T08:03:37.246Z,100209.64
2018-09-17T08:06:06.589Z,100195.16
2018-09-17T08:08:35.615Z,100194.79
2018-09-17T08:11:04.455Z,100179.84
2018-09-17T08:13:33.243Z,100176.09
2018-09-17T08:16:01.943Z,100173.66
2018-09-17T08:18:31.000Z,100165.90
2018-09-17T08:20:59.987Z,100157.38
2018-09-17T08:23:28.897Z,100161.26
2018-09-17T08:25:58.064Z,100155.53
2018-09-17T08:28:27.035Z,100149.86
2018-09-17T08:30:55.919Z,100149.37
2018-09-17T08:33:24.745Z,100156.16
2018-09-17T08:35:53.682Z,100161.73
2018-09-17T08:38:22.512Z,100158.14
2018-09-17T08:40:51.263Z,100156.45
2018-09-17T08:43:21.072Z,100152.84
2018-09-17T08:45:49.874Z,100158.13
2018-09-17T08:48:18.662Z,100154.80
2018-09-17T08:50:47.268Z,100148.69
2018-09-17T08:53:16.141Z,100143.27
2018-09-17T08:55:46.391Z,100145.67
2018-09-17T08:58:20.379Z,100141.02
2018-09-17T09:00:54.377Z,100136.22
2018-09-17T09:03:30.000Z,100139.42
2018-09-17T09:06:03.851Z,100143.29
2018-09-17T09:08:32.467Z,100146.60
2018-09-17T09:11:06.657Z,100150.62
2018-09-17T09:13:40.499Z,100151.47
2018-09-17T09:16:09.611Z,100147.45
2018-09-17T09:18:38.280Z,100152.78
2018-09-17T09:21:07.005Z,100148.87
2018-09-17T09:23:36.128Z,100143.26
2018-09-17T09:26:04.870Z,100143.25
2018-09-17T09:28:33.563Z,100146.86
2018-09-17T09:31:02.395Z,100139.20
2018-09-17T09:33:31.509Z,100139.45
2018-09-17T09:36:00.507Z,100136.44
2018-09-17T09:38:29.410Z,100139.61
2018-09-17T09:40:58.073Z,100136.08
2018-09-17T09:43:26.659Z,100136.27
2018-09-17T09:45:55.792Z,100139.81
2018-09-17T09:48:24.657Z,100138.92
2018-09-17T09:50:53.699Z,100134.19
2018-09-17T09:53:22.628Z,100131.42
2018-09-17T09:55:52.272Z,100126.54
2018-09-17T09:58:21.193Z,100131.70
2018-09-17T10:00:55.111Z,100126.61
2018-09-17T10:03:29.425Z,100132.93
2018-09-17T10:05:59.380Z,100137.25
2018-09-17T10:08:28.332Z,100132.67
2018-09-17T10:11:02.316Z,100139.34
2018-09-17T10:13:36.226Z,100140.92
2018-09-17T10:16:10.163Z,100138.87
2018-09-17T10:18:44.046Z,100132.09
2018-09-17T10:21:12.826Z,100134.55
2018-09-17T10:23:41.616Z,100130.11
2018-09-17T10:26:10.683Z,100134.69
2018-09-17T10:28:39.316Z,100133.28
2018-09-17T10:31:08.057Z,100132.63
2018-09-17T10:33:37.160Z,100083.55
2018-09-17T10:36:05.975Z,100131.91
2018-09-17T10:38:34.718Z,100135.17
2018-09-17T10:41:03.830Z,100127.73
2018-09-17T10:43:32.717Z,100132.36
2018-09-17T10:46:01.482Z,100130.12
2018-09-17T10:48:30.249Z,100128.00
2018-09-17T10:50:58.912Z,100126.61
2018-09-17T10:53:27.576Z,100131.71
2018-09-17T10:55:56.572Z,100136.05
2018-09-17T10:58:25.336Z,100137.08
2018-09-17T11:00:54.153Z,100137.23
2018-09-17T11:03:22.941Z,100136.77
2018-09-17T11:06:54.769Z,100131.88
2018-09-17T11:09:23.753Z,100133.41
2018-09-17T11:11:52.810Z,100134.46
2018-09-17T11:14:21.561Z,100132.45
2018-09-17T11:16:50.660Z,100136.45
2018-09-17T11:19:19.880Z,100141.48
2018-09-17T11:21:49.036Z,100138.13
2018-09-17T11:24:20.961Z,100137.64
2018-09-17T11:26:49.884Z,100141.89
2018-09-17T11:29:18.683Z,100136.72
2018-09-17T11:31:47.771Z,100132.22
2018-09-17T11:34:16.540Z,100140.29
2018-09-17T11:36:45.347Z,100133.66
2018-09-17T11:39:13.969Z,100127.16
2018-09-17T11:41:42.855Z,100131.00
2018-09-17T11:44:11.856Z,100130.11
2018-09-17T11:46:40.635Z,100125.29
2018-09-17T11:49:09.395Z,100124.98
2018-09-17T11:51:38.149Z,100119.20
2018-09-17T11:54:07.089Z,100128.27
2018-09-17T11:56:35.933Z,100127.59
2018-09-17T11:59:04.686Z,100123.92
2018-09-17T12:01:38.654Z,100131.60
2018-09-17T12:04:12.131Z,100124.30
2018-09-17T12:06:46.170Z,100130.22
2018-09-17T12:09:15.078Z,100122.52
2018-09-17T12:11:43.850Z,100122.59
2018-09-17T12:14:12.669Z,100131.86
2018-09-17T12:16:41.505Z,100129.84
2018-09-17T12:19:10.260Z,100129.23
2018-09-17T12:21:39.378Z,100130.06
2018-09-17T12:24:08.226Z,100134.16
2018-09-17T12:26:37.203Z,100131.44
2018-09-17T12:29:06.008Z,100131.84
2018-09-17T12:31:34.776Z,100125.21
2018-09-17T12:34:03.526Z,100120.88
2018-09-17T12:36:32.111Z,100116.32
2018-09-17T12:39:00.829Z,100109.20
2018-09-17T12:44:20.191Z,100110.53
2018-09-17T12:46:48.882Z,100111.58
2018-09-17T12:49:17.592Z,100120.12
2018-09-17T12:51:46.205Z,100114.94
2018-09-17T12:54:15.079Z,100116.75
2018-09-17T12:56:43.833Z,100110.67
2018-09-17T12:59:13.058Z,100115.29
2018-09-17T13:01:41.774Z,100105.46
2018-09-17T13:04:10.599Z,100110.77
2018-09-17T13:06:39.302Z,100105.88
2018-09-17T13:09:09.541Z,100097.42
2018-09-17T13:11:38.339Z,100099.95
2018-09-17T13:14:07.163Z,100105.70
2018-09-17T13:16:38.328Z,100111.18
2018-09-17T13:19:08.809Z,100105.96
2018-09-17T13:21:37.573Z,100101.19
2018-09-17T13:24:07.164Z,100109.27
2018-09-17T13:26:36.105Z,100109.41
2018-09-17T13:29:04.870Z,100108.22
2018-09-17T13:31:33.891Z,100099.77
2018-09-17T13:34:02.869Z,100099.98
2018-09-17T13:36:31.851Z,100098.25
2018-09-17T13:39:00.547Z,100104.18
2018-09-17T13:41:29.240Z,100100.82
2018-09-17T13:43:58.219Z,100107.59
2018-09-17T13:46:28.072Z,100105.28
2018-09-17T13:48:57.082Z,100107.64
2018-09-17T13:51:26.165Z,100098.17
2018-09-17T13:53:54.939Z,100098.30
2018-09-17T13:56:23.906Z,100101.22
2018-09-17T13:58:52.830Z,100104.36
2018-09-17T14:01:21.640Z,100102.33
2018-09-17T14:03:50.444Z,100105.95
2018-09-17T14:06:19.120Z,100105.20
2018-09-17T14:08:47.847Z,100106.78
2018-09-17T14:11:16.797Z,100109.56
2018-09-17T14:13:45.635Z,100122.50
2018-09-17T14:16:14.583Z,100113.32
2018-09-17T14:18:43.385Z,100118.69
2018-09-17T14:21:12.360Z,100123.02
2018-09-17T14:23:41.024Z,100125.86
2018-09-17T14:26:09.990Z,100129.12
2018-09-17T14:28:38.706Z,100128.41
2018-09-17T14:31:07.711Z,100133.41
2018-09-17T14:33:38.537Z,100129.56
2018-09-17T14:36:08.062Z,100131.05
2018-09-17T14:38:36.652Z,100137.33
2018-09-17T14:41:05.527Z,100135.20
2018-09-17T14:43:34.286Z,100134.61
2018-09-17T14:46:03.081Z,100132.93
2018-09-17T14:48:32.178Z,100133.05
2018-09-17T14:51:01.196Z,100137.92
2018-09-17T14:53:29.928Z,100141.05
2018-09-17T14:55:58.809Z,100144.41
2018-09-17T14:58:27.626Z,100138.89
2018-09-17T15:00:56.833Z,100137.61
2018-09-17T15:03:25.596Z,100131.36
2018-09-17T15:05:54.448Z,100135.70
2018-09-17T15:08:23.537Z,100138.87
2018-09-17T15:10:52.437Z,100141.33
2018-09-17T15:13:21.244Z,100141.33
2018-09-17T15:15:56.396Z,100141.50
2018-09-17T15:18:25.586Z,100019.08
2018-09-17T15:20:54.815Z,100146.44
2018-09-17T15:23:24.130Z,100147.85
2018-09-17T15:25:53.298Z,100144.14
2018-09-17T15:28:22.411Z,100140.86
2018-09-17T15:30:51.126Z,100143.38
2018-09-17T15:33:20.241Z,100140.73
2018-09-17T15:35:49.902Z,100140.25
2018-09-17T15:38:19.255Z,100148.12
2018-09-17T15:40:48.148Z,100142.08
2018-09-17T15:43:17.250Z,100144.12
2018-09-17T15:45:46.758Z,100127.13
2018-09-17T15:48:15.478Z,100136.84
2018-09-17T15:50:44.404Z,100139.36
2018-09-17T15:53:13.466Z,100143.45
2018-09-17T15:55:42.648Z,100136.04
2018-09-17T15:58:11.973Z,100134.23
2018-09-17T16:00:41.028Z,100134.99
2018-09-17T16:03:10.416Z,100137.89
2018-09-17T16:05:39.443Z,100139.56
2018-09-17T16:08:08.382Z,100137.08
2018-09-17T16:10:38.162Z,100137.20
2018-09-17T16:13:07.035Z,100134.00
2018-09-17T16:15:36.576Z,100147.55
2018-09-17T16:18:05.708Z,100151.52
2018-09-17T16:20:34.745Z,100149.03
2018-09-17T16:23:03.405Z,100147.38
2018-09-17T16:25:32.516Z,100154.36
2018-09-17T16:28:01.239Z,100151.35
2018-09-17T16:30:30.292Z,100156.16
2018-09-17T16:32:59.333Z,100158.36
2018-09-17T16:35:28.134Z,100150.06
2018-09-17T16:37:56.975Z,100160.28
2018-09-17T16:40:25.702Z,100163.44
2018-09-17T16:42:54.854Z,100173.66
2018-09-17T16:45:23.889Z,100174.41
2018-09-17T16:47:52.549Z,100179.22
2018-09-17T16:50:24.541Z,100181.38
2018-09-17T16:52:53.882Z,100178.37
2018-09-17T16:55:22.669Z,100181.16
2018-09-17T16:57:51.405Z,100177.07
2018-09-17T17:00:20.028Z,100176.14
2018-09-17T17:02:48.722Z,100187.78
2018-09-17T17:05:17.600Z,100188.17
2018-09-17T17:07:46.554Z,100191.41
2018-09-17T17:10:15.547Z,100197.78
2018-09-17T17:12:44.766Z,100199.36
2018-09-17T17:15:13.452Z,100202.50
2018-09-17T17:17:42.209Z,100207.31
2018-09-17T17:20:11.221Z,100213.19
2018-09-17T17:22:39.986Z,100210.41
2018-09-17T17:25:08.865Z,100210.67
2018-09-17T17:27:37.578Z,100215.96
2018-09-17T17:30:06.529Z,100210.55
2018-09-17T17:32:35.604Z,100212.86
2018-09-17T17:35:04.472Z,100214.98
2018-09-17T17:37:33.232Z,100221.38
2018-09-17T17:40:02.093Z,100224.13
2018-09-17T17:42:31.083Z,100226.31
2018-09-17T17:44:59.980Z,100230.02
2018-09-17T17:47:28.739Z,100233.03
2018-09-17T17:49:57.401Z,100228.45
2018-09-17T17:52:26.215Z,100231.93
2018-09-17T17:54:55.116Z,100228.59
2018-09-17T17:57:23.910Z,100228.23
2018-09-17T17:59:53.053Z,100229.89
2018-09-17T18:02:22.021Z,100227.51
2018-09-17T18:04:50.708Z,100224.50
2018-09-17T18:07:19.745Z,100224.84
2018-09-17T18:09:48.386Z,100228.11
2018-09-17T18:12:17.197Z,100223.52
2018-09-17T18:14:45.989Z,100229.37
2018-09-17T18:17:14.751Z,100226.00
2018-09-17T18:19:43.708Z,100230.80
2018-09-17T18:22:12.827Z,100227.67
2018-09-17T18:24:41.899Z,100231.13
2018-09-17T18:27:10.748Z,100231.12
2018-09-17T18:29:39.503Z,100230.50
2018-09-17T18:32:08.572Z,100234.45
2018-09-17T18:34:37.479Z,100233.95
2018-09-17T18:37:06.528Z,100221.71
2018-09-17T18:39:35.734Z,100230.31
2018-09-17T18:42:04.544Z,100230.94
2018-09-17T18:44:33.451Z,100229.47
2018-09-17T18:47:02.489Z,100237.73
2018-09-17T18:49:31.311Z,100233.25
2018-09-17T18:52:00.239Z,100239.98
2018-09-17T18:54:29.048Z,100238.75
2018-09-17T18:56:57.812Z,100237.53
2018-09-17T18:59:26.622Z,100236.52
2018-09-17T19:01:55.473Z,100257.59
2018-09-17T19:04:24.194Z,100253.14
2018-09-17T19:06:53.035Z,100249.74
2018-09-17T19:09:25.972Z,100251.38
2018-09-17T19:11:54.820Z,100248.61
2018-09-17T19:14:28.794Z,100247.27
2018-09-17T19:16:58.353Z,100239.80
2018-09-17T19:19:27.409Z,100241.06
2018-09-17T19:22:02.019Z,100242.61
2018-09-17T19:24:30.625Z,100247.24
2018-09-17T19:26:59.645Z,100248.33
2018-09-17T19:29:28.533Z,100254.13
2018-09-17T19:31:57.388Z,100248.42
2018-09-17T19:34:26.287Z,100254.40
2018-09-17T19:36:59.064Z,100257.13
2018-09-17T19:39:33.031Z,100249.19
2018-09-17T19:42:02.188Z,100246.63
2018-09-17T19:44:31.259Z,100256.03
2018-09-17T19:46:59.925Z,100258.13
2018-09-17T19:49:28.978Z,100259.52
2018-09-17T19:52:02.835Z,100256.62
2018-09-17T19:54:31.622Z,100254.59
2018-09-17T19:57:00.757Z,100254.59
2018-09-17T19:59:34.832Z,100260.61
2018-09-17T20:02:03.762Z,100263.05
2018-09-17T20:04:37.799Z,100264.50
2018-09-17T20:07:07.076Z,100262.13
2018-09-17T20:09:36.200Z,100261.19
2018-09-17T20:12:05.167Z,100263.83
2018-09-17T20:14:34.164Z,100263.22
2018-09-17T20:17:02.947Z,100267.30
2018-09-17T20:19:31.689Z,100273.61
2018-09-17T20:22:00.605Z,100270.70
2018-09-17T20:24:29.627Z,100271.89
2018-09-17T20:26:58.690Z,100271.05
2018-09-17T20:29:27.364Z,100270.67
2018-09-17T20:31:56.243Z,100268.00
2018-09-17T20:34:25.150Z,100272.62
2018-09-17T20:36:53.843Z,100263.03
2018-09-17T20:39:22.649Z,100273.70
2018-09-17T20:41:51.396Z,100271.45
2018-09-17T20:44:20.327Z,100276.28
2018-09-17T20:46:49.401Z,100273.22
2018-09-17T20:49:18.274Z,100285.02
2018-09-17T20:51:46.907Z,100284.79
2018-09-17T20:54:16.323Z,100288.69
2018-09-17T20:56:45.209Z,100294.00
2018-09-17T20:59:14.164Z,100291.03
2018-09-17T21:01:49.287Z,100286.09
2018-09-17T21:04:18.103Z,100287.13
2018-09-17T21:06:47.099Z,100277.95
2018-09-17T21:09:16.103Z,100285.47
2018-09-17T21:11:45.083Z,100285.56
2018-09-17T21:14:14.180Z,100283.44
2018-09-17T21:16:42.869Z,100285.09
2018-09-17T21:19:12.058Z,100284.25
2018-09-17T21:21:41.145Z,100290.95
2018-09-17T21:24:10.102Z,100294.99
2018-09-17T21:26:38.799Z,100297.91
2018-09-17T21:29:07.560Z,100302.44
2018-09-17T21:31:36.429Z,100297.66
2018-09-17T21:34:05.235Z,100304.78
2018-09-17T21:36:34.338Z,100304.78
2018-09-17T21:39:03.490Z,100309.89
2018-09-17T21:41:32.302Z,100320.12
2018-09-17T21:44:01.522Z,100313.17
2018-09-17T21:46:30.247Z,100317.33
2018-09-17T21:48:59.347Z,100318.99
2018-09-17T21:51:28.312Z,100318.18
2018-09-17T21:53:57.185Z,100318.91
2018-09-17T21:56:26.356Z,100329.80
2018-09-17T21:58:55.751Z,100330.82
2018-09-17T22:01:24.699Z,100331.20
2018-09-17T22:03:53.470Z,100325.69
2018-09-17T22:06:22.456Z,100333.94
2018-09-17T22:08:51.254Z,100334.25
2018-09-17T22:11:20.239Z,100331.63
2018-09-17T22:13:49.330Z,100337.91
2018-09-17T22:16:18.149Z,100325.52
2018-09-17T22:18:47.210Z,100327.50
2018-09-17T22:21:15.910Z,100330.19
2018-09-17T22:23:45.669Z,100335.45
2018-09-17T22:26:14.563Z,100333.45
2018-09-17T22:28:43.664Z,100343.62
2018-09-17T22:31:12.274Z,100350.54
2018-09-17T22:33:41.213Z,100349.98
2018-09-17T22:36:09.978Z,100357.87
2018-09-17T22:38:38.565Z,100355.99
2018-09-17T22:41:07.430Z,100362.19
2018-09-17T22:43:36.213Z,100359.56
2018-09-17T22:46:04.894Z,100362.75
2018-09-17T22:48:33.605Z,100364.28
2018-09-17T22:51:02.377Z,100373.66
2018-09-17T22:53:31.179Z,100370.56
2018-09-17T22:55:59.958Z,100371.12
2018-09-17T22:58:28.826Z,100375.06
2018-09-17T23:00:57.829Z,100375.45
2018-09-17T23:03:26.691Z,100378.83
2018-09-17T23:05:55.333Z,100382.39
2018-09-17T23:08:24.192Z,100378.83
2018-09-17T23:10:52.940Z,100380.33
2018-09-17T23:13:21.753Z,100232.36
2018-09-17T23:15:50.878Z,100389.07
2018-09-17T23:18:19.565Z,100382.97
2018-09-17T23:20:48.326Z,100380.25
2018-09-17T23:23:17.342Z,100381.09
2018-09-17T23:25:46.289Z,100380.92
2018-09-17T23:28:15.045Z,100380.92
2018-09-17T23:30:43.832Z,100382.95
2018-09-17T23:33:12.528Z,100384.39
2018-09-17T23:35:41.356Z,100385.20
2018-09-17T23:38:10.380Z,100383.63
2018-09-17T23:40:39.019Z,100392.76
2018-09-17T23:43:07.930Z,100392.94
2018-09-17T23:45:36.754Z,100394.90
2018-09-17T23:48:05.689Z,100393.03
2018-09-17T23:50:34.374Z,100396.13
2018-09-17T23:53:03.508Z,100400.75
2018-09-17T23:55:32.147Z,100395.12
2018-09-17T23:58:01.253Z,100400.17
